createdAt,value
2023-01-28T00:00:37.599Z,98777.34
2023-01-28T00:02:10.735Z,98777.34
2023-01-28T00:03:43.485Z,98775.66
2023-01-28T00:05:17.189Z,98779.09
2023-01-28T00:06:50.356Z,98775.66
2023-01-28T00:08:23.531Z,98788.69
2023-01-28T00:09:56.863Z,98775.69
2023-01-28T00:11:30.046Z,98777.47
2023-01-28T00:13:04.572Z,98786.13
2023-01-28T00:14:38.031Z,98773.97
2023-01-28T00:16:11.747Z,98790.41
2023-01-28T00:17:44.942Z,98783.44
2023-01-28T00:19:18.115Z,98786.03
2023-01-28T00:20:57.223Z,98783.44
2023-01-28T00:22:30.781Z,98787.78
2023-01-28T00:24:04.012Z,98787.78
2023-01-28T00:25:37.427Z,98791.28
2023-01-28T00:27:10.633Z,98788.66
2023-01-28T00:28:45.938Z,98786.03
2023-01-28T00:30:19.480Z,98790.34
2023-01-28T00:31:52.677Z,98794.63
2023-01-28T00:33:25.869Z,98789.38
2023-01-28T00:34:59.183Z,98796.34
2023-01-28T00:36:32.404Z,98792.88
2023-01-28T00:38:06.029Z,98792.88
2023-01-28T00:39:39.217Z,98796.31
2023-01-28T00:41:14.799Z,98802.44
2023-01-28T00:42:48.042Z,98800.72
2023-01-28T00:44:22.515Z,98796.38
2023-01-28T00:45:55.971Z,98806.78
2023-01-28T00:47:29.273Z,98806.75
2023-01-28T00:49:02.520Z,98798.09
2023-01-28T00:50:35.768Z,98807.66
2023-01-28T00:52:08.925Z,98799.88
2023-01-28T00:53:44.592Z,98789.47
2023-01-28T00:55:18.208Z,98805.94
2023-01-28T00:56:53.722Z,98810.28
2023-01-28T00:58:25.895Z,98805.06
2023-01-28T01:00:00.685Z,98805.94
2023-01-28T01:01:35.245Z,98804.13
2023-01-28T01:03:08.442Z,98810.25
2023-01-28T01:04:41.881Z,98810.25
2023-01-28T01:06:17.319Z,98806.78
2023-01-28T01:07:50.470Z,98807.66
2023-01-28T01:09:23.624Z,98804.16
2023-01-28T01:11:00.119Z,98808.53
2023-01-28T01:12:33.662Z,98805.84
2023-01-28T01:14:08.112Z,98805.00
2023-01-28T01:15:41.974Z,98808.63
2023-01-28T01:17:15.128Z,98805.19
2023-01-28T01:18:48.417Z,98811.22
2023-01-28T01:20:25.115Z,98802.50
2023-01-28T01:21:58.523Z,98804.25
2023-01-28T01:23:32.500Z,98809.47
2023-01-28T01:25:07.165Z,98821.63
2023-01-28T01:26:40.467Z,98813.84
2023-01-28T01:28:12.658Z,98820.75
2023-01-28T01:29:45.756Z,98819.84
2023-01-28T01:31:23.041Z,98817.34
2023-01-28T01:32:55.326Z,98808.69
2023-01-28T01:34:28.627Z,98815.66
2023-01-28T01:36:00.926Z,98814.81
2023-01-28T01:37:35.577Z,98803.63
2023-01-28T01:39:08.919Z,98818.28
2023-01-28T01:40:42.055Z,98818.28
2023-01-28T01:42:15.022Z,98820.84
2023-01-28T01:43:50.287Z,98824.28
2023-01-28T01:45:23.647Z,98819.09
2023-01-28T01:46:57.157Z,98826.13
2023-01-28T01:48:35.086Z,98828.72
2023-01-28T01:50:18.016Z,98824.50
2023-01-28T01:51:55.863Z,98828.91
2023-01-28T01:53:30.186Z,98829.81
2023-01-28T01:55:13.067Z,98836.75
2023-01-28T01:56:50.773Z,98833.28
2023-01-28T01:58:26.654Z,98840.22
2023-01-28T02:00:06.232Z,98842.84
2023-01-28T02:01:49.674Z,98836.75
2023-01-28T02:03:29.928Z,98832.38
2023-01-28T02:05:04.090Z,98831.47
2023-01-28T02:06:39.114Z,98829.81
2023-01-28T02:08:32.573Z,98838.50
2023-01-28T02:10:07.873Z,98847.16
2023-01-28T02:11:41.041Z,98831.50
2023-01-28T02:13:16.143Z,98839.28
2023-01-28T02:14:55.467Z,98837.47
2023-01-28T02:16:30.062Z,98831.38
2023-01-28T02:18:02.460Z,98841.78
2023-01-28T02:19:44.122Z,98836.53
2023-01-28T02:22:04.871Z,98833.94
2023-01-28T02:23:54.881Z,98834.81
2023-01-28T02:25:42.482Z,98831.28
2023-01-28T02:27:29.265Z,98824.38
2023-01-28T02:29:11.221Z,98832.16
2023-01-28T02:30:53.245Z,98833.00
2023-01-28T02:32:32.334Z,98826.06
2023-01-28T02:34:13.302Z,98824.38
2023-01-28T02:35:51.049Z,98829.59
2023-01-28T02:37:29.017Z,98833.06
2023-01-28T02:39:11.016Z,98837.47
2023-01-28T02:41:06.453Z,98838.38
2023-01-28T02:42:41.578Z,98850.63
2023-01-28T02:44:16.417Z,98834.91
2023-01-28T02:46:03.437Z,98843.59
2023-01-28T02:47:53.992Z,98840.09
2023-01-28T02:49:32.960Z,98841.84
2023-01-28T02:51:16.376Z,98845.28
2023-01-28T02:53:19.253Z,98851.41
2023-01-28T02:55:01.109Z,98847.88
2023-01-28T02:56:42.172Z,98848.78
2023-01-28T02:58:23.620Z,98855.72
2023-01-28T03:00:05.122Z,98846.19
2023-01-28T03:01:44.022Z,98852.22
2023-01-28T03:03:21.833Z,98851.38
2023-01-28T03:05:01.412Z,98853.91
2023-01-28T03:06:39.604Z,98853.91
2023-01-28T03:08:27.466Z,98858.28
2023-01-28T03:10:06.087Z,98853.06
2023-01-28T03:12:00.777Z,98849.56
2023-01-28T03:13:51.948Z,98860.81
2023-01-28T03:15:47.931Z,98855.63
2023-01-28T03:17:43.978Z,98865.25
2023-01-28T03:19:37.305Z,98865.38
2023-01-28T03:21:31.280Z,98850.66
2023-01-28T03:23:29.809Z,98868.88
2023-01-28T03:25:22.164Z,98859.38
2023-01-28T03:27:21.536Z,98859.34
2023-01-28T03:29:28.221Z,98864.59
2023-01-28T03:31:24.990Z,98867.22
2023-01-28T03:33:20.239Z,98864.56
2023-01-28T03:35:12.150Z,98866.34
2023-01-28T03:36:50.741Z,98858.47
2023-01-28T03:38:43.774Z,98870.63
2023-01-28T03:40:20.466Z,98868.91
2023-01-28T03:41:58.448Z,98871.47
2023-01-28T03:43:32.705Z,98877.53
2023-01-28T03:45:07.915Z,98869.72
2023-01-28T03:46:42.716Z,98882.81
2023-01-28T03:48:16.126Z,98877.66
2023-01-28T03:49:50.554Z,98883.75
2023-01-28T03:51:26.155Z,98883.78
2023-01-28T03:53:15.933Z,98888.19
2023-01-28T03:54:53.624Z,98890.78
2023-01-28T03:56:28.504Z,98898.63
2023-01-28T03:58:01.871Z,98893.44
2023-01-28T03:59:35.766Z,98896.91
2023-01-28T04:01:08.989Z,98897.75
2023-01-28T04:02:44.004Z,98898.66
2023-01-28T04:04:26.661Z,98904.75
2023-01-28T04:06:03.932Z,98909.06
2023-01-28T04:08:07.645Z,98902.94
2023-01-28T04:09:59.186Z,98905.63
2023-01-28T04:11:41.541Z,98909.97
2023-01-28T04:13:16.170Z,98912.56
2023-01-28T04:14:48.774Z,98913.41
2023-01-28T04:16:30.709Z,98911.66
2023-01-28T04:18:05.894Z,98918.59
2023-01-28T04:19:41.164Z,98916.88
2023-01-28T04:21:13.644Z,98922.09
2023-01-28T04:22:46.773Z,98916.06
2023-01-28T04:24:21.813Z,98923.84
2023-01-28T04:25:54.540Z,98925.59
2023-01-28T04:27:28.895Z,98920.34
2023-01-28T04:29:05.676Z,98925.53
2023-01-28T04:30:39.741Z,98921.19
2023-01-28T04:32:13.019Z,98929.00
2023-01-28T04:34:06.885Z,98931.59
2023-01-28T04:35:54.728Z,98934.19
2023-01-28T04:38:00.149Z,98934.13
2023-01-28T04:39:41.526Z,98942.81
2023-01-28T04:41:27.209Z,98938.50
2023-01-28T04:43:03.124Z,98941.09
2023-01-28T04:45:01.564Z,98944.59
2023-01-28T04:47:04.059Z,98942.84
2023-01-28T04:48:48.239Z,98951.56
2023-01-28T04:50:28.304Z,98951.56
2023-01-28T04:52:39.770Z,98951.63
2023-01-28T04:54:39.392Z,98953.34
2023-01-28T04:56:13.059Z,98955.16
2023-01-28T04:57:48.184Z,98958.66
2023-01-28T04:59:21.358Z,98955.16
2023-01-28T05:00:56.944Z,98951.75
2023-01-28T05:02:30.652Z,98956.97
2023-01-28T05:04:05.964Z,98957.81
2023-01-28T05:05:43.946Z,98959.53
2023-01-28T05:07:27.379Z,98967.34
2023-01-28T05:09:00.571Z,98974.28
2023-01-28T05:10:33.931Z,98969.03
2023-01-28T05:12:07.471Z,98967.28
2023-01-28T05:13:43.326Z,98963.00
2023-01-28T05:15:18.991Z,98972.53
2023-01-28T05:16:52.982Z,98977.75
2023-01-28T05:18:26.507Z,98976.91
2023-01-28T05:20:21.152Z,98976.03
2023-01-28T05:21:57.683Z,98972.53
2023-01-28T05:23:47.299Z,98979.50
2023-01-28T05:25:21.208Z,98969.94
2023-01-28T05:26:54.622Z,98975.13
2023-01-28T05:28:27.924Z,98981.19
2023-01-28T05:30:02.717Z,98981.13
2023-01-28T05:31:36.128Z,98982.91
2023-01-28T05:33:10.819Z,98982.91
2023-01-28T05:34:44.252Z,98984.56
2023-01-28T05:36:20.226Z,98986.31
2023-01-28T05:37:54.999Z,98991.44
2023-01-28T05:39:27.627Z,98995.84
2023-01-28T05:41:00.946Z,98993.22
2023-01-28T05:42:34.054Z,98995.81
2023-01-28T05:44:27.586Z,98996.66
2023-01-28T05:46:22.997Z,99004.47
2023-01-28T05:48:13.051Z,98995.81
2023-01-28T05:50:04.947Z,99003.56
2023-01-28T05:51:54.374Z,99002.72
2023-01-28T05:53:30.141Z,99007.94
2023-01-28T05:55:03.140Z,99015.75
2023-01-28T05:56:36.929Z,99008.78
2023-01-28T05:58:10.465Z,99007.94
2023-01-28T05:59:43.617Z,99002.75
2023-01-28T06:01:16.760Z,99012.28
2023-01-28T06:02:56.419Z,99014.06
2023-01-28T06:04:30.503Z,99018.41
2023-01-28T06:06:05.037Z,99017.56
2023-01-28T06:07:38.524Z,99020.13
2023-01-28T06:09:14.496Z,99023.56
2023-01-28T06:10:48.079Z,99018.38
2023-01-28T06:12:22.096Z,99028.78
2023-01-28T06:14:13.248Z,99027.91
2023-01-28T06:16:12.888Z,99033.03
2023-01-28T06:18:06.085Z,99034.78
2023-01-28T06:19:40.626Z,99037.34
2023-01-28T06:21:14.758Z,99038.22
2023-01-28T06:22:51.408Z,99035.63
2023-01-28T06:24:26.047Z,99039.91
2023-01-28T06:25:59.572Z,99044.19
2023-01-28T06:27:33.971Z,99038.06
2023-01-28T06:29:07.135Z,99045.00
2023-01-28T06:30:40.251Z,99041.50
2023-01-28T06:32:13.402Z,99039.69
2023-01-28T06:33:45.739Z,99053.59
2023-01-28T06:35:18.834Z,99053.59
2023-01-28T06:36:53.277Z,99049.19
2023-01-28T06:38:25.591Z,99050.06
2023-01-28T06:40:00.173Z,99054.34
2023-01-28T06:41:33.326Z,99060.38
2023-01-28T06:43:07.274Z,99062.16
2023-01-28T06:44:40.457Z,99055.97
2023-01-28T06:46:13.728Z,99067.16
2023-01-28T06:47:47.001Z,99063.63
2023-01-28T06:49:20.697Z,99068.06
2023-01-28T06:50:53.194Z,99076.81
2023-01-28T06:52:26.527Z,99074.19
2023-01-28T06:53:59.924Z,99079.28
2023-01-28T06:55:34.495Z,99075.75
2023-01-28T06:57:07.657Z,99076.53
2023-01-28T06:58:41.095Z,99074.72
2023-01-28T07:00:16.888Z,99080.72
2023-01-28T07:01:50.237Z,99079.81
2023-01-28T07:03:23.394Z,99082.41
2023-01-28T07:04:57.175Z,99087.63
2023-01-28T07:06:30.312Z,99077.16
2023-01-28T07:08:02.804Z,99089.31
2023-01-28T07:09:35.988Z,99085.00
2023-01-28T07:11:10.719Z,99082.41
2023-01-28T07:12:44.555Z,99079.00
2023-01-28T07:14:18.922Z,99076.47
2023-01-28T07:15:52.029Z,99089.41
2023-01-28T07:17:25.701Z,99089.38
2023-01-28T07:18:58.815Z,99092.91
2023-01-28T07:20:31.212Z,99090.34
2023-01-28T07:22:04.472Z,99091.22
2023-01-28T07:23:39.952Z,99089.53
2023-01-28T07:25:14.419Z,99090.44
2023-01-28T07:26:50.508Z,99084.44
2023-01-28T07:28:23.678Z,99088.75
2023-01-28T07:29:56.131Z,99094.91
2023-01-28T07:31:29.273Z,99089.66
2023-01-28T07:33:02.464Z,99096.63
2023-01-28T07:34:37.629Z,99098.41
2023-01-28T07:36:11.353Z,99102.75
2023-01-28T07:37:43.400Z,99104.53
2023-01-28T07:39:16.565Z,99095.81
2023-01-28T07:40:50.309Z,99096.66
2023-01-28T07:42:24.603Z,99094.91
2023-01-28T07:43:59.670Z,99088.78
2023-01-28T07:45:33.211Z,99100.88
2023-01-28T07:47:07.948Z,99097.41
2023-01-28T07:48:41.539Z,99100.00
2023-01-28T07:50:16.174Z,99099.97
2023-01-28T07:51:51.027Z,99096.53
2023-01-28T07:53:24.142Z,99098.25
2023-01-28T07:54:57.946Z,99091.25
2023-01-28T07:56:32.291Z,99102.59
2023-01-28T07:58:08.461Z,99104.31
2023-01-28T07:59:41.653Z,99103.34
2023-01-28T08:01:15.510Z,99101.53
2023-01-28T08:02:49.169Z,99098.91
2023-01-28T08:04:22.455Z,99106.69
2023-01-28T08:05:57.910Z,99098.00
2023-01-28T08:07:30.424Z,99102.34
2023-01-28T08:09:05.438Z,99103.28
2023-01-28T08:10:39.482Z,99105.91
2023-01-28T08:12:11.658Z,99102.47
2023-01-28T08:13:46.460Z,99113.81
2023-01-28T08:15:18.911Z,99126.13
2023-01-28T08:16:52.065Z,99123.50
2023-01-28T08:18:25.187Z,99123.50
2023-01-28T08:19:58.467Z,99123.44
2023-01-28T08:21:31.755Z,99118.09
2023-01-28T08:23:09.302Z,99121.50
2023-01-28T08:24:42.520Z,99117.94
2023-01-28T08:26:16.036Z,99127.44
2023-01-28T08:27:49.298Z,99123.19
2023-01-28T08:29:23.832Z,99120.75
2023-01-28T08:30:57.225Z,99121.47
2023-01-28T08:32:31.167Z,99122.38
2023-01-28T08:34:04.431Z,99122.56
2023-01-28T08:35:38.065Z,99129.53
2023-01-28T08:37:11.210Z,99124.19
2023-01-28T08:38:44.625Z,99128.38
2023-01-28T08:40:18.428Z,99127.28
2023-01-28T08:41:51.556Z,99131.47
2023-01-28T08:43:28.155Z,99119.13
2023-01-28T08:45:02.907Z,99121.78
2023-01-28T08:46:36.154Z,99121.88
2023-01-28T08:48:13.016Z,99127.91
2023-01-28T08:49:46.119Z,99112.94
2023-01-28T08:51:19.464Z,99118.06
2023-01-28T08:52:57.193Z,99124.03
2023-01-28T08:54:30.252Z,99120.63
2023-01-28T08:56:03.464Z,99118.06
2023-01-28T08:57:36.644Z,99121.53
2023-01-28T08:59:10.178Z,99124.94
2023-01-28T09:00:46.087Z,99124.84
2023-01-28T09:02:30.833Z,99129.16
2023-01-28T09:04:05.479Z,99124.78
2023-01-28T09:05:39.445Z,99135.25
2023-01-28T09:07:12.537Z,99126.53
2023-01-28T09:08:45.653Z,99122.94
2023-01-28T09:10:20.659Z,99116.75
2023-01-28T09:11:55.798Z,99129.00
2023-01-28T09:13:30.171Z,99117.72
2023-01-28T09:15:03.473Z,99115.22
2023-01-28T09:16:38.101Z,99118.72
2023-01-28T09:18:11.670Z,99116.88
2023-01-28T09:19:44.820Z,99120.22
2023-01-28T09:21:17.964Z,99101.09
2023-01-28T09:22:51.222Z,99110.50
2023-01-28T09:24:24.474Z,99115.81
2023-01-28T09:26:01.688Z,99117.59
2023-01-28T09:27:35.081Z,99117.66
2023-01-28T09:29:08.290Z,99117.56
2023-01-28T09:30:41.518Z,99118.47
2023-01-28T09:32:16.162Z,99114.94
2023-01-28T09:33:54.867Z,99111.47
2023-01-28T09:35:28.265Z,99107.50
2023-01-28T09:37:01.604Z,99103.09
2023-01-28T09:38:36.472Z,99109.19
2023-01-28T09:40:16.106Z,99102.13
2023-01-28T09:41:58.982Z,99112.53
2023-01-28T09:44:07.025Z,99106.44
2023-01-28T09:45:43.747Z,99105.59
2023-01-28T09:47:25.970Z,99107.31
2023-01-28T09:49:01.619Z,99109.06
2023-01-28T09:50:38.638Z,99108.94
2023-01-28T09:52:15.581Z,99114.91
2023-01-28T09:53:53.578Z,99111.41
2023-01-28T09:55:34.203Z,99117.38
2023-01-28T09:57:13.969Z,99118.97
2023-01-28T09:58:47.132Z,99118.22
2023-01-28T10:00:23.934Z,99118.22
2023-01-28T10:02:04.214Z,99118.19
2023-01-28T10:03:51.765Z,99114.50
2023-01-28T10:05:34.229Z,99118.78
2023-01-28T10:07:21.578Z,99121.38
2023-01-28T10:09:22.596Z,99116.88
2023-01-28T10:11:05.190Z,99118.78
2023-01-28T10:13:06.043Z,99123.22
2023-01-28T10:14:51.353Z,99122.28
2023-01-28T10:16:33.733Z,99120.38
2023-01-28T10:18:17.554Z,99111.56
2023-01-28T10:19:58.633Z,99120.09
2023-01-28T10:21:37.877Z,99115.03
2023-01-28T10:23:17.321Z,99115.88
2023-01-28T10:24:55.481Z,99115.03
2023-01-28T10:26:34.986Z,99114.13
2023-01-28T10:28:19.566Z,99116.00
2023-01-28T10:29:54.204Z,99112.47
2023-01-28T10:31:33.481Z,99115.09
2023-01-28T10:33:11.841Z,99113.19
2023-01-28T10:34:45.213Z,99109.81
2023-01-28T10:36:20.439Z,99114.25
2023-01-28T10:38:08.016Z,99106.47
2023-01-28T10:39:41.344Z,99106.28
2023-01-28T10:41:21.158Z,99115.72
2023-01-28T10:42:54.599Z,99100.78
2023-01-28T10:44:34.078Z,99114.88
2023-01-28T10:46:13.146Z,99110.38
2023-01-28T10:47:51.839Z,99109.53
2023-01-28T10:49:28.876Z,99097.41
2023-01-28T10:51:06.150Z,99112.88
2023-01-28T10:52:40.838Z,99108.44
2023-01-28T10:54:22.006Z,99104.88
2023-01-28T10:55:59.641Z,99108.38
2023-01-28T10:57:36.005Z,99109.31
2023-01-28T10:59:21.923Z,99105.97
2023-01-28T11:00:58.656Z,99119.03
2023-01-28T11:02:37.312Z,99101.53
2023-01-28T11:04:19.488Z,99114.59
2023-01-28T11:05:53.849Z,99118.84
2023-01-28T11:07:27.155Z,99104.88
2023-01-28T11:09:01.777Z,99122.47
2023-01-28T11:10:37.340Z,99113.97
2023-01-28T11:12:15.239Z,99125.59
2023-01-28T11:13:52.137Z,99112.47
2023-01-28T11:15:25.363Z,99111.53
2023-01-28T11:17:00.013Z,99124.56
2023-01-28T11:18:36.748Z,99119.22
2023-01-28T11:20:15.028Z,99120.00
2023-01-28T11:21:53.899Z,99119.84
2023-01-28T11:23:30.346Z,99114.56
2023-01-28T11:25:15.377Z,99107.56
2023-01-28T11:26:51.228Z,99110.97
2023-01-28T11:28:28.076Z,99108.19
2023-01-28T11:30:04.834Z,99105.50
2023-01-28T11:31:43.460Z,99100.31
2023-01-28T11:33:19.881Z,99107.25
2023-01-28T11:34:57.464Z,99112.41
2023-01-28T11:36:31.879Z,99113.97
2023-01-28T11:38:20.043Z,99112.25
2023-01-28T11:40:06.048Z,99109.75
2023-01-28T11:41:40.092Z,99108.13
2023-01-28T11:43:13.561Z,99100.47
2023-01-28T11:44:48.098Z,99103.22
2023-01-28T11:46:44.239Z,99106.75
2023-01-28T11:48:28.840Z,99108.34
2023-01-28T11:50:23.599Z,99102.16
2023-01-28T11:52:06.606Z,99106.53
2023-01-28T11:53:56.008Z,99096.81
2023-01-28T11:55:41.413Z,99103.59
2023-01-28T11:57:24.279Z,99101.88
2023-01-28T11:59:09.512Z,99107.13
2023-01-28T12:00:50.936Z,99110.59
2023-01-28T12:02:49.907Z,99108.78
2023-01-28T12:04:35.194Z,99100.06
2023-01-28T12:06:27.902Z,99114.03
2023-01-28T12:08:09.957Z,99103.59
2023-01-28T12:09:52.669Z,99101.41
2023-01-28T12:11:51.574Z,99104.06
2023-01-28T12:13:36.641Z,99111.16
2023-01-28T12:15:32.537Z,99112.97
2023-01-28T12:17:18.850Z,99112.19
2023-01-28T12:19:10.747Z,99111.53
2023-01-28T12:20:53.365Z,99118.59
2023-01-28T12:22:45.254Z,99118.66
2023-01-28T12:24:35.100Z,99117.00
2023-01-28T12:26:13.416Z,99114.41
2023-01-28T12:27:54.577Z,99115.22
2023-01-28T12:29:35.812Z,99122.06
2023-01-28T12:31:34.829Z,99113.25
2023-01-28T12:33:31.891Z,99106.38
2023-01-28T12:35:23.651Z,99118.53
2023-01-28T12:37:04.737Z,99120.19
2023-01-28T12:38:50.229Z,99116.66
2023-01-28T12:40:41.679Z,99128.88
2023-01-28T12:42:20.845Z,99121.91
2023-01-28T12:44:02.063Z,99125.34
2023-01-28T12:45:41.648Z,99118.41
2023-01-28T12:47:21.710Z,99127.16
2023-01-28T12:49:02.043Z,99125.34
2023-01-28T12:50:39.909Z,99124.44
2023-01-28T12:52:20.027Z,99128.88
2023-01-28T12:54:00.877Z,99124.44
2023-01-28T12:55:42.824Z,99126.94
2023-01-28T12:57:23.052Z,99114.56
2023-01-28T12:59:04.136Z,99126.69
2023-01-28T13:00:43.179Z,99133.72
2023-01-28T13:02:27.874Z,99132.91
2023-01-28T13:04:05.336Z,99134.59
2023-01-28T13:05:44.869Z,99144.31
2023-01-28T13:07:25.927Z,99140.94
2023-01-28T13:09:04.100Z,99140.97
2023-01-28T13:10:42.572Z,99136.75
2023-01-28T13:12:16.801Z,99130.84
2023-01-28T13:13:50.200Z,99135.44
2023-01-28T13:15:26.288Z,99140.84
2023-01-28T13:17:10.874Z,99135.84
2023-01-28T13:18:48.115Z,99141.03
2023-01-28T13:20:32.917Z,99150.56
2023-01-28T13:22:13.190Z,99144.53
2023-01-28T13:23:48.115Z,99146.53
2023-01-28T13:25:24.488Z,99151.00
2023-01-28T13:26:58.244Z,99140.59
2023-01-28T13:28:33.861Z,99141.56
2023-01-28T13:30:26.197Z,99144.34
2023-01-28T13:32:01.028Z,99147.94
2023-01-28T13:33:36.249Z,99152.25
2023-01-28T13:35:31.972Z,99158.38
2023-01-28T13:37:17.460Z,99160.06
2023-01-28T13:39:01.073Z,99165.25
2023-01-28T13:40:35.366Z,99160.06
2023-01-28T13:42:24.525Z,99168.81
2023-01-28T13:43:59.044Z,99164.44
2023-01-28T13:45:35.128Z,99165.28
2023-01-28T13:47:23.917Z,99167.91
2023-01-28T13:49:00.372Z,99161.84
2023-01-28T13:50:40.632Z,99169.75
2023-01-28T13:52:18.457Z,99175.00
2023-01-28T13:53:59.827Z,99174.13
2023-01-28T13:55:44.838Z,99170.59
2023-01-28T13:57:45.287Z,99179.31
2023-01-28T13:59:46.070Z,99175.81
2023-01-28T14:02:07.506Z,99174.06
2023-01-28T14:04:31.262Z,99175.78
2023-01-28T14:06:23.069Z,99188.84
2023-01-28T14:08:25.325Z,99181.03
2023-01-28T14:10:43.166Z,99184.56
2023-01-28T14:12:48.778Z,99170.59
2023-01-28T14:15:10.887Z,99184.59
2023-01-28T14:16:52.570Z,99195.94
2023-01-28T14:18:28.943Z,99195.06
2023-01-28T14:20:02.999Z,99203.75
2023-01-28T14:21:37.043Z,99190.69
2023-01-28T14:23:18.395Z,99186.38
2023-01-28T14:24:51.952Z,99193.31
2023-01-28T14:26:41.725Z,99193.34
2023-01-28T14:28:22.170Z,99188.09
2023-01-28T14:30:09.808Z,99187.19
2023-01-28T14:31:43.714Z,99192.44
2023-01-28T14:33:19.233Z,99182.84
2023-01-28T14:34:52.687Z,99191.59
2023-01-28T14:36:26.856Z,99189.81
2023-01-28T14:38:02.364Z,99195.03
2023-01-28T14:39:47.183Z,99198.56
2023-01-28T14:41:26.439Z,99195.13
2023-01-28T14:42:59.938Z,99195.16
2023-01-28T14:44:36.791Z,99203.97
2023-01-28T14:46:26.026Z,99191.78
2023-01-28T14:48:31.668Z,99197.06
2023-01-28T14:50:21.734Z,99198.78
2023-01-28T14:52:12.415Z,99204.00
2023-01-28T14:54:07.196Z,99210.13
2023-01-28T14:55:53.695Z,99205.81
2023-01-28T14:57:42.197Z,99209.28
2023-01-28T14:59:22.089Z,99207.53
2023-01-28T15:00:57.334Z,99211.94
2023-01-28T15:02:32.692Z,99210.16
2023-01-28T15:04:06.123Z,99212.75
2023-01-28T15:05:40.963Z,99218.88
2023-01-28T15:07:19.668Z,99218.91
2023-01-28T15:08:53.725Z,99216.38
2023-01-28T15:10:29.648Z,99219.84
2023-01-28T15:12:04.195Z,99222.53
2023-01-28T15:13:40.812Z,99226.88
2023-01-28T15:15:30.996Z,99225.13
2023-01-28T15:17:05.250Z,99216.44
2023-01-28T15:18:42.900Z,99204.31
2023-01-28T15:20:20.526Z,99230.38
2023-01-28T15:21:56.892Z,99222.56
2023-01-28T15:23:34.903Z,99229.53
2023-01-28T15:25:08.792Z,99229.59
2023-01-28T15:26:47.669Z,99226.97
2023-01-28T15:28:27.794Z,99228.72
2023-01-28T15:30:02.634Z,99227.81
2023-01-28T15:31:39.365Z,99232.16
2023-01-28T15:33:15.131Z,99240.00
2023-01-28T15:34:48.525Z,99239.16
2023-01-28T15:36:22.287Z,99236.56
2023-01-28T15:37:57.789Z,99235.75
2023-01-28T15:39:31.615Z,99244.41
2023-01-28T15:41:07.089Z,99240.06
2023-01-28T15:42:40.364Z,99247.03
2023-01-28T15:44:19.775Z,99250.50
2023-01-28T15:45:56.500Z,99249.63
2023-01-28T15:47:33.791Z,99248.78
2023-01-28T15:49:07.318Z,99251.41
2023-01-28T15:50:44.989Z,99248.81
2023-01-28T15:52:18.705Z,99252.25
2023-01-28T15:53:58.313Z,99259.25
2023-01-28T15:55:40.485Z,99262.69
2023-01-28T15:57:20.716Z,99260.06
2023-01-28T15:58:54.717Z,99255.75
2023-01-28T16:00:29.536Z,99258.34
2023-01-28T16:02:19.897Z,99256.63
2023-01-28T16:04:04.173Z,99271.41
2023-01-28T16:05:41.087Z,99268.81
2023-01-28T16:07:14.470Z,99264.41
2023-01-28T16:08:54.661Z,99270.47
2023-01-28T16:10:32.083Z,99272.22
2023-01-28T16:12:07.954Z,99272.22
2023-01-28T16:13:44.992Z,99277.41
2023-01-28T16:15:21.021Z,99273.91
2023-01-28T16:16:56.472Z,99275.72
2023-01-28T16:18:39.645Z,99277.44
2023-01-28T16:20:22.406Z,99281.75
2023-01-28T16:21:55.858Z,99273.09
2023-01-28T16:23:29.894Z,99275.66
2023-01-28T16:25:24.080Z,99279.13
2023-01-28T16:26:58.570Z,99280.84
2023-01-28T16:28:32.893Z,99280.00
2023-01-28T16:30:07.520Z,99280.84
2023-01-28T16:31:40.971Z,99283.47
2023-01-28T16:33:20.715Z,99284.34
2023-01-28T16:34:54.146Z,99291.31
2023-01-28T16:36:27.472Z,99286.13
2023-01-28T16:38:01.190Z,99289.59
2023-01-28T16:39:34.590Z,99293.09
2023-01-28T16:41:14.129Z,99294.81
2023-01-28T16:42:48.993Z,99294.81
2023-01-28T16:44:22.606Z,99298.31
2023-01-28T16:45:56.114Z,99301.81
2023-01-28T16:47:29.854Z,99296.59
2023-01-28T16:49:03.356Z,99296.59
2023-01-28T16:50:39.772Z,99290.50
2023-01-28T16:52:13.952Z,99300.97
2023-01-28T16:53:49.248Z,99300.13
2023-01-28T16:55:23.991Z,99296.66
2023-01-28T16:56:58.863Z,99301.03
2023-01-28T16:58:32.379Z,99307.16
2023-01-28T17:00:07.018Z,99307.19
2023-01-28T17:01:40.675Z,99305.47
2023-01-28T17:03:14.181Z,99298.50
2023-01-28T17:04:47.803Z,99301.97
2023-01-28T17:06:22.202Z,99315.03
2023-01-28T17:07:59.422Z,99313.31
2023-01-28T17:09:32.933Z,99313.28
2023-01-28T17:11:07.441Z,99305.44
2023-01-28T17:12:42.582Z,99309.78
2023-01-28T17:14:16.083Z,99311.53
2023-01-28T17:15:49.998Z,99340.31
2023-01-28T17:17:23.625Z,99314.16
2023-01-28T17:18:57.073Z,99317.63
2023-01-28T17:20:30.626Z,99322.84
2023-01-28T17:22:03.943Z,99328.06
2023-01-28T17:23:37.410Z,99321.06
2023-01-28T17:25:11.423Z,99319.31
2023-01-28T17:26:44.795Z,99321.03
2023-01-28T17:28:19.607Z,99327.13
2023-01-28T17:29:53.919Z,99321.03
2023-01-28T17:31:27.732Z,99318.44
2023-01-28T17:33:01.216Z,99325.44
2023-01-28T17:34:34.745Z,99324.56
2023-01-28T17:36:09.038Z,99320.22
2023-01-28T17:37:42.388Z,99319.34
2023-01-28T17:39:15.626Z,99322.84
2023-01-28T17:40:48.977Z,99329.88
2023-01-28T17:42:27.545Z,99326.38
2023-01-28T17:44:04.772Z,99319.44
2023-01-28T17:45:38.170Z,99322.88
2023-01-28T17:47:12.106Z,99326.38
2023-01-28T17:48:46.819Z,99325.47
2023-01-28T17:50:20.549Z,99324.59
2023-01-28T17:51:54.332Z,99335.03
2023-01-28T17:53:27.839Z,99329.88
2023-01-28T17:55:01.426Z,99329.91
2023-01-28T17:56:34.937Z,99327.31
2023-01-28T17:58:08.180Z,99328.19
2023-01-28T17:59:42.812Z,99333.41
2023-01-28T18:01:16.425Z,99331.66
2023-01-28T18:02:51.807Z,99333.41
2023-01-28T18:04:25.621Z,99327.31
2023-01-28T18:06:00.616Z,99334.31
2023-01-28T18:07:34.129Z,99335.19
2023-01-28T18:09:07.715Z,99338.69
2023-01-28T18:10:44.574Z,99333.47
2023-01-28T18:12:18.099Z,99338.69
2023-01-28T18:13:51.672Z,99336.03
2023-01-28T18:15:26.553Z,99338.63
2023-01-28T18:16:59.805Z,99340.41
2023-01-28T18:18:33.221Z,99339.50
2023-01-28T18:20:07.723Z,99334.31
2023-01-28T18:21:52.689Z,99345.63
2023-01-28T18:23:26.991Z,99343.03
2023-01-28T18:25:00.192Z,99335.22
2023-01-28T18:26:33.561Z,99342.16
2023-01-28T18:28:08.620Z,99342.19
2023-01-28T18:29:41.814Z,99343.94
2023-01-28T18:31:16.498Z,99348.31
2023-01-28T18:32:50.488Z,99347.44
2023-01-28T18:34:25.569Z,99340.50
2023-01-28T18:35:58.957Z,99344.81
2023-01-28T18:37:32.493Z,99357.88
2023-01-28T18:39:06.189Z,99348.25
2023-01-28T18:40:44.278Z,99356.09
2023-01-28T18:42:17.505Z,99352.63
2023-01-28T18:43:50.739Z,99356.97
2023-01-28T18:45:24.258Z,99356.09
2023-01-28T18:46:59.003Z,99350.88
2023-01-28T18:48:32.439Z,99356.06
2023-01-28T18:50:06.669Z,99352.56
2023-01-28T18:51:40.515Z,99357.78
2023-01-28T18:53:14.157Z,99353.47
2023-01-28T18:54:47.636Z,99356.91
2023-01-28T18:56:20.965Z,99358.69
2023-01-28T18:57:54.449Z,99355.19
2023-01-28T18:59:28.042Z,99358.69
2023-01-28T19:01:03.929Z,99355.19
2023-01-28T19:02:40.337Z,99353.47
2023-01-28T19:04:14.314Z,99357.81
2023-01-28T19:05:47.885Z,99359.56
2023-01-28T19:07:21.194Z,99350.88
2023-01-28T19:08:55.684Z,99356.97
2023-01-28T19:10:29.243Z,99349.16
2023-01-28T19:12:02.824Z,99356.09
2023-01-28T19:13:36.563Z,99350.03
2023-01-28T19:15:10.775Z,99353.47